sensor_id;sensor_type;location;lat;lon;timestamp;P1;P2;P0
76661;PMS5003;65579;45.534;6.212;2023-05-07T00:00:02;6;6;
76661;PMS5003;65579;45.534;6.212;2023-05-07T00:02:28;6;6;
76661;PMS5003;65579;45.534;6.212;2023-05-07T00:04:52;9;7;
76661;PMS5003;65579;45.534;6.212;2023-05-07T00:07:18;8;6;
76661;PMS5003;65579;45.534;6.212;2023-05-07T00:09:43;6;6;
76661;PMS5003;65579;45.534;6.212;2023-05-07T00:12:09;5;5;
76661;PMS5003;65579;45.534;6.212;2023-05-07T00:14:35;8;7;
76661;PMS5003;65579;45.534;6.212;2023-05-07T00:17:01;9;6;
76661;PMS5003;65579;45.534;6.212;2023-05-07T00:19:27;6;6;
76661;PMS5003;65579;45.534;6.212;2023-05-07T00:21:51;7;7;
76661;PMS5003;65579;45.534;6.212;2023-05-07T00:24:17;7;7;
76661;PMS5003;65579;45.534;6.212;2023-05-07T00:26:42;17;17;
76661;PMS5003;65579;45.534;6.212;2023-05-07T00:29:08;9;9;
76661;PMS5003;65579;45.534;6.212;2023-05-07T00:31:33;10;10;
76661;PMS5003;65579;45.534;6.212;2023-05-07T00:33:58;6;6;
76661;PMS5003;65579;45.534;6.212;2023-05-07T00:36:23;8;8;
76661;PMS5003;65579;45.534;6.212;2023-05-07T00:38:48;10;8;
76661;PMS5003;65579;45.534;6.212;2023-05-07T00:41:14;10;10;
76661;PMS5003;65579;45.534;6.212;2023-05-07T00:43:39;11;9;
76661;PMS5003;65579;45.534;6.212;2023-05-07T00:46:04;7;7;
76661;PMS5003;65579;45.534;6.212;2023-05-07T00:48:29;6;6;
76661;PMS5003;65579;45.534;6.212;2023-05-07T00:50:54;9;9;
76661;PMS5003;65579;45.534;6.212;2023-05-07T00:53:19;8;8;
76661;PMS5003;65579;45.534;6.212;2023-05-07T00:55:44;9;9;
76661;PMS5003;65579;45.534;6.212;2023-05-07T00:58:09;8;8;
76661;PMS5003;65579;45.534;6.212;2023-05-07T01:00:34;9;9;
76661;PMS5003;65579;45.534;6.212;2023-05-07T01:02:59;8;8;
76661;PMS5003;65579;45.534;6.212;2023-05-07T01:05:24;10;10;
76661;PMS5003;65579;45.534;6.212;2023-05-07T01:07:49;6;6;
76661;PMS5003;65579;45.534;6.212;2023-05-07T01:10:15;9;9;
76661;PMS5003;65579;45.534;6.212;2023-05-07T01:12:41;7;7;
76661;PMS5003;65579;45.534;6.212;2023-05-07T01:15:07;7;7;
76661;PMS5003;65579;45.534;6.212;2023-05-07T01:17:32;7;7;
76661;PMS5003;65579;45.534;6.212;2023-05-07T01:19:56;8;8;
76661;PMS5003;65579;45.534;6.212;2023-05-07T01:22:26;9;9;
76661;PMS5003;65579;45.534;6.212;2023-05-07T01:24:46;7;7;
76661;PMS5003;65579;45.534;6.212;2023-05-07T01:27:12;11;10;
76661;PMS5003;65579;45.534;6.212;2023-05-07T01:29:37;8;8;
76661;PMS5003;65579;45.534;6.212;2023-05-07T01:32:02;8;8;
76661;PMS5003;65579;45.534;6.212;2023-05-07T01:34:28;9;8;
76661;PMS5003;65579;45.534;6.212;2023-05-07T01:36:52;7;7;
76661;PMS5003;65579;45.534;6.212;2023-05-07T01:39:17;7;7;
76661;PMS5003;65579;45.534;6.212;2023-05-07T01:41:42;8;8;
76661;PMS5003;65579;45.534;6.212;2023-05-07T01:44:07;10;8;
76661;PMS5003;65579;45.534;6.212;2023-05-07T01:46:32;8;8;
76661;PMS5003;65579;45.534;6.212;2023-05-07T01:48:57;8;8;
76661;PMS5003;65579;45.534;6.212;2023-05-07T01:51:22;8;8;
76661;PMS5003;65579;45.534;6.212;2023-05-07T01:53:47;9;7;
76661;PMS5003;65579;45.534;6.212;2023-05-07T01:56:12;8;8;
76661;PMS5003;65579;45.534;6.212;2023-05-07T01:58:37;11;6;
76661;PMS5003;65579;45.534;6.212;2023-05-07T02:01:03;10;8;
76661;PMS5003;65579;45.534;6.212;2023-05-07T02:03:28;7;7;
76661;PMS5003;65579;45.534;6.212;2023-05-07T02:05:53;7;7;
76661;PMS5003;65579;45.534;6.212;2023-05-07T02:08:18;9;9;
76661;PMS5003;65579;45.534;6.212;2023-05-07T02:10:43;10;10;
76661;PMS5003;65579;45.534;6.212;2023-05-07T02:13:08;9;9;
76661;PMS5003;65579;45.534;6.212;2023-05-07T02:15:34;9;8;
76661;PMS5003;65579;45.534;6.212;2023-05-07T02:17:59;13;11;
76661;PMS5003;65579;45.534;6.212;2023-05-07T02:20:24;8;6;
76661;PMS5003;65579;45.534;6.212;2023-05-07T02:22:49;9;9;
76661;PMS5003;65579;45.534;6.212;2023-05-07T02:25:14;7;7;
76661;PMS5003;65579;45.534;6.212;2023-05-07T02:27:39;12;12;
76661;PMS5003;65579;45.534;6.212;2023-05-07T02:30:05;10;9;
76661;PMS5003;65579;45.534;6.212;2023-05-07T02:32:29;11;11;
76661;PMS5003;65579;45.534;6.212;2023-05-07T02:34:54;10;10;
76661;PMS5003;65579;45.534;6.212;2023-05-07T02:37:19;10;10;
76661;PMS5003;65579;45.534;6.212;2023-05-07T02:39:45;13;11;
76661;PMS5003;65579;45.534;6.212;2023-05-07T02:42:11;11;11;
76661;PMS5003;65579;45.534;6.212;2023-05-07T02:44:36;10;10;
76661;PMS5003;65579;45.534;6.212;2023-05-07T02:47:01;10;10;
76661;PMS5003;65579;45.534;6.212;2023-05-07T02:49:27;12;9;
76661;PMS5003;65579;45.534;6.212;2023-05-07T02:51:51;10;9;
76661;PMS5003;65579;45.534;6.212;2023-05-07T02:54:17;9;9;
76661;PMS5003;65579;45.534;6.212;2023-05-07T02:56:42;10;10;
76661;PMS5003;65579;45.534;6.212;2023-05-07T02:59:07;10;10;
76661;PMS5003;65579;45.534;6.212;2023-05-07T03:01:32;8;8;
76661;PMS5003;65579;45.534;6.212;2023-05-07T03:03:57;8;8;
76661;PMS5003;65579;45.534;6.212;2023-05-07T03:06:22;8;8;
76661;PMS5003;65579;45.534;6.212;2023-05-07T03:08:48;10;10;
76661;PMS5003;65579;45.534;6.212;2023-05-07T03:11:13;9;8;
76661;PMS5003;65579;45.534;6.212;2023-05-07T03:13:38;8;8;
76661;PMS5003;65579;45.534;6.212;2023-05-07T03:16:03;10;7;
76661;PMS5003;65579;45.534;6.212;2023-05-07T03:18:29;9;9;
76661;PMS5003;65579;45.534;6.212;2023-05-07T03:20:54;8;8;
76661;PMS5003;65579;45.534;6.212;2023-05-07T03:23:19;9;9;
76661;PMS5003;65579;45.534;6.212;2023-05-07T03:25:44;9;9;
76661;PMS5003;65579;45.534;6.212;2023-05-07T03:28:09;10;10;
76661;PMS5003;65579;45.534;6.212;2023-05-07T03:30:34;9;9;
76661;PMS5003;65579;45.534;6.212;2023-05-07T03:32:59;9;9;
76661;PMS5003;65579;45.534;6.212;2023-05-07T03:35:25;10;10;
76661;PMS5003;65579;45.534;6.212;2023-05-07T03:37:50;9;9;
76661;PMS5003;65579;45.534;6.212;2023-05-07T03:40:15;10;8;
76661;PMS5003;65579;45.534;6.212;2023-05-07T03:42:40;8;8;
76661;PMS5003;65579;45.534;6.212;2023-05-07T03:45:06;9;8;
76661;PMS5003;65579;45.534;6.212;2023-05-07T03:47:30;9;9;
76661;PMS5003;65579;45.534;6.212;2023-05-07T03:49:55;7;7;
76661;PMS5003;65579;45.534;6.212;2023-05-07T03:52:20;11;9;
76661;PMS5003;65579;45.534;6.212;2023-05-07T03:54:45;10;9;
76661;PMS5003;65579;45.534;6.212;2023-05-07T03:57:11;8;8;
76661;PMS5003;65579;45.534;6.212;2023-05-07T03:59:36;11;10;
76661;PMS5003;65579;45.534;6.212;2023-05-07T04:02:01;10;10;
76661;PMS5003;65579;45.534;6.212;2023-05-07T04:04:27;8;8;
76661;PMS5003;65579;45.534;6.212;2023-05-07T04:06:52;10;10;
76661;PMS5003;65579;45.534;6.212;2023-05-07T04:09:17;11;9;
76661;PMS5003;65579;45.534;6.212;2023-05-07T04:11:42;10;10;
76661;PMS5003;65579;45.534;6.212;2023-05-07T04:14:07;10;10;
76661;PMS5003;65579;45.534;6.212;2023-05-07T04:16:34;8;8;
76661;PMS5003;65579;45.534;6.212;2023-05-07T04:18:58;9;9;
76661;PMS5003;65579;45.534;6.212;2023-05-07T04:21:24;8;8;
76661;PMS5003;65579;45.534;6.212;2023-05-07T04:23:48;11;11;
76661;PMS5003;65579;45.534;6.212;2023-05-07T04:26:14;10;10;
76661;PMS5003;65579;45.534;6.212;2023-05-07T04:28:39;10;10;
76661;PMS5003;65579;45.534;6.212;2023-05-07T04:31:04;10;10;
76661;PMS5003;65579;45.534;6.212;2023-05-07T04:33:29;9;9;
76661;PMS5003;65579;45.534;6.212;2023-05-07T04:35:54;10;10;
76661;PMS5003;65579;45.534;6.212;2023-05-07T04:38:19;8;8;
76661;PMS5003;65579;45.534;6.212;2023-05-07T04:40:44;7;7;
76661;PMS5003;65579;45.534;6.212;2023-05-07T04:43:09;9;9;
76661;PMS5003;65579;45.534;6.212;2023-05-07T04:45:34;9;8;
76661;PMS5003;65579;45.534;6.212;2023-05-07T04:47:59;15;12;
76661;PMS5003;65579;45.534;6.212;2023-05-07T04:50:24;10;10;
76661;PMS5003;65579;45.534;6.212;2023-05-07T04:52:50;14;12;
76661;PMS5003;65579;45.534;6.212;2023-05-07T04:55:15;11;11;
76661;PMS5003;65579;45.534;6.212;2023-05-07T04:57:40;8;8;
76661;PMS5003;65579;45.534;6.212;2023-05-07T05:00:06;11;11;
76661;PMS5003;65579;45.534;6.212;2023-05-07T05:02:30;8;8;
76661;PMS5003;65579;45.534;6.212;2023-05-07T05:04:55;7;7;
76661;PMS5003;65579;45.534;6.212;2023-05-07T05:07:21;9;9;
76661;PMS5003;65579;45.534;6.212;2023-05-07T05:09:46;8;8;
76661;PMS5003;65579;45.534;6.212;2023-05-07T05:12:11;10;10;
76661;PMS5003;65579;45.534;6.212;2023-05-07T05:14:36;10;10;
76661;PMS5003;65579;45.534;6.212;2023-05-07T05:17:02;10;10;
76661;PMS5003;65579;45.534;6.212;2023-05-07T05:19:27;10;8;
76661;PMS5003;65579;45.534;6.212;2023-05-07T05:21:52;11;11;
76661;PMS5003;65579;45.534;6.212;2023-05-07T05:24:18;14;14;
76661;PMS5003;65579;45.534;6.212;2023-05-07T05:26:43;12;12;
76661;PMS5003;65579;45.534;6.212;2023-05-07T05:29:09;6;6;
76661;PMS5003;65579;45.534;6.212;2023-05-07T05:31:34;10;10;
76661;PMS5003;65579;45.534;6.212;2023-05-07T05:33:59;10;10;
76661;PMS5003;65579;45.534;6.212;2023-05-07T05:36:24;12;10;
76661;PMS5003;65579;45.534;6.212;2023-05-07T05:38:49;7;7;
76661;PMS5003;65579;45.534;6.212;2023-05-07T05:41:14;6;6;
76661;PMS5003;65579;45.534;6.212;2023-05-07T05:43:41;10;10;
76661;PMS5003;65579;45.534;6.212;2023-05-07T05:46:04;7;7;
76661;PMS5003;65579;45.534;6.212;2023-05-07T05:48:29;11;11;
76661;PMS5003;65579;45.534;6.212;2023-05-07T05:50:54;10;10;
76661;PMS5003;65579;45.534;6.212;2023-05-07T05:53:19;9;9;
76661;PMS5003;65579;45.534;6.212;2023-05-07T05:55:44;10;9;
76661;PMS5003;65579;45.534;6.212;2023-05-07T05:58:09;9;9;
76661;PMS5003;65579;45.534;6.212;2023-05-07T06:00:34;13;11;
76661;PMS5003;65579;45.534;6.212;2023-05-07T06:02:59;11;10;
76661;PMS5003;65579;45.534;6.212;2023-05-07T06:05:25;11;9;
76661;PMS5003;65579;45.534;6.212;2023-05-07T06:07:50;11;11;
76661;PMS5003;65579;45.534;6.212;2023-05-07T06:10:15;10;10;
76661;PMS5003;65579;45.534;6.212;2023-05-07T06:12:40;10;10;
76661;PMS5003;65579;45.534;6.212;2023-05-07T06:15:05;10;10;
76661;PMS5003;65579;45.534;6.212;2023-05-07T06:17:30;11;11;
76661;PMS5003;65579;45.534;6.212;2023-05-07T06:19:56;10;10;
76661;PMS5003;65579;45.534;6.212;2023-05-07T06:22:21;10;10;
76661;PMS5003;65579;45.534;6.212;2023-05-07T06:24:47;8;8;
76661;PMS5003;65579;45.534;6.212;2023-05-07T06:27:12;9;9;
76661;PMS5003;65579;45.534;6.212;2023-05-07T06:29:37;8;8;
76661;PMS5003;65579;45.534;6.212;2023-05-07T06:32:07;8;7;
76661;PMS5003;65579;45.534;6.212;2023-05-07T06:34:27;8;8;
76661;PMS5003;65579;45.534;6.212;2023-05-07T06:36:52;11;11;
76661;PMS5003;65579;45.534;6.212;2023-05-07T06:39:17;9;9;
76661;PMS5003;65579;45.534;6.212;2023-05-07T06:41:43;13;10;
76661;PMS5003;65579;45.534;6.212;2023-05-07T06:44:07;14;11;
76661;PMS5003;65579;45.534;6.212;2023-05-07T06:46:32;12;12;
76661;PMS5003;65579;45.534;6.212;2023-05-07T06:48:58;9;9;
76661;PMS5003;65579;45.534;6.212;2023-05-07T06:51:23;10;10;
76661;PMS5003;65579;45.534;6.212;2023-05-07T06:53:48;12;12;
76661;PMS5003;65579;45.534;6.212;2023-05-07T06:56:13;9;9;
76661;PMS5003;65579;45.534;6.212;2023-05-07T06:58:38;12;11;
76661;PMS5003;65579;45.534;6.212;2023-05-07T07:01:03;11;11;
76661;PMS5003;65579;45.534;6.212;2023-05-07T07:03:28;8;8;
76661;PMS5003;65579;45.534;6.212;2023-05-07T07:05:53;9;9;
76661;PMS5003;65579;45.534;6.212;2023-05-07T07:08:18;10;10;
76661;PMS5003;65579;45.534;6.212;2023-05-07T07:10:43;12;11;
76661;PMS5003;65579;45.534;6.212;2023-05-07T07:13:08;10;10;
76661;PMS5003;65579;45.534;6.212;2023-05-07T07:15:33;9;9;
76661;PMS5003;65579;45.534;6.212;2023-05-07T07:17:58;9;9;
76661;PMS5003;65579;45.534;6.212;2023-05-07T07:20:23;10;10;
76661;PMS5003;65579;45.534;6.212;2023-05-07T07:22:48;9;8;
76661;PMS5003;65579;45.534;6.212;2023-05-07T07:25:13;10;9;
76661;PMS5003;65579;45.534;6.212;2023-05-07T07:27:38;7;7;
76661;PMS5003;65579;45.534;6.212;2023-05-07T07:30:04;10;8;
76661;PMS5003;65579;45.534;6.212;2023-05-07T07:32:29;7;7;
76661;PMS5003;65579;45.534;6.212;2023-05-07T07:34:55;11;11;
76661;PMS5003;65579;45.534;6.212;2023-05-07T07:37:21;8;8;
76661;PMS5003;65579;45.534;6.212;2023-05-07T07:39:47;10;10;
76661;PMS5003;65579;45.534;6.212;2023-05-07T07:42:13;12;12;
76661;PMS5003;65579;45.534;6.212;2023-05-07T07:44:38;12;11;
76661;PMS5003;65579;45.534;6.212;2023-05-07T07:47:04;7;7;
76661;PMS5003;65579;45.534;6.212;2023-05-07T07:49:30;8;8;
76661;PMS5003;65579;45.534;6.212;2023-05-07T07:51:56;8;8;
76661;PMS5003;65579;45.534;6.212;2023-05-07T07:54:22;12;11;
76661;PMS5003;65579;45.534;6.212;2023-05-07T07:56:47;8;8;
76661;PMS5003;65579;45.534;6.212;2023-05-07T07:59:13;8;8;
76661;PMS5003;65579;45.534;6.212;2023-05-07T08:01:39;6;6;
76661;PMS5003;65579;45.534;6.212;2023-05-07T08:04:05;8;8;
76661;PMS5003;65579;45.534;6.212;2023-05-07T08:06:31;9;8;
76661;PMS5003;65579;45.534;6.212;2023-05-07T08:08:57;8;6;
76661;PMS5003;65579;45.534;6.212;2023-05-07T08:11:22;11;9;
76661;PMS5003;65579;45.534;6.212;2023-05-07T08:13:48;6;6;
76661;PMS5003;65579;45.534;6.212;2023-05-07T08:16:13;8;8;
76661;PMS5003;65579;45.534;6.212;2023-05-07T08:18:39;7;7;
76661;PMS5003;65579;45.534;6.212;2023-05-07T08:21:05;10;10;
76661;PMS5003;65579;45.534;6.212;2023-05-07T08:23:31;11;11;
76661;PMS5003;65579;45.534;6.212;2023-05-07T08:25:56;9;8;
76661;PMS5003;65579;45.534;6.212;2023-05-07T08:28:21;10;10;
76661;PMS5003;65579;45.534;6.212;2023-05-07T08:30:47;8;8;
76661;PMS5003;65579;45.534;6.212;2023-05-07T08:33:13;5;5;
76661;PMS5003;65579;45.534;6.212;2023-05-07T08:35:39;9;9;
76661;PMS5003;65579;45.534;6.212;2023-05-07T08:38:05;11;8;
76661;PMS5003;65579;45.534;6.212;2023-05-07T08:40:31;9;8;
76661;PMS5003;65579;45.534;6.212;2023-05-07T08:42:56;7;7;
76661;PMS5003;65579;45.534;6.212;2023-05-07T08:45:22;9;8;
76661;PMS5003;65579;45.534;6.212;2023-05-07T08:48:02;6;5;
76661;PMS5003;65579;45.534;6.212;2023-05-07T08:50:13;7;7;
76661;PMS5003;65579;45.534;6.212;2023-05-07T08:52:39;5;5;
76661;PMS5003;65579;45.534;6.212;2023-05-07T08:55:05;8;8;
76661;PMS5003;65579;45.534;6.212;2023-05-07T08:57:30;9;8;
76661;PMS5003;65579;45.534;6.212;2023-05-07T08:59:56;10;9;
76661;PMS5003;65579;45.534;6.212;2023-05-07T09:02:22;9;7;
76661;PMS5003;65579;45.534;6.212;2023-05-07T09:04:48;6;6;
76661;PMS5003;65579;45.534;6.212;2023-05-07T09:07:15;7;7;
76661;PMS5003;65579;45.534;6.212;2023-05-07T09:09:39;7;7;
76661;PMS5003;65579;45.534;6.212;2023-05-07T09:12:10;7;7;
76661;PMS5003;65579;45.534;6.212;2023-05-07T09:43:40;8;8;
76661;PMS5003;65579;45.534;6.212;2023-05-07T09:46:06;6;6;
76661;PMS5003;65579;45.534;6.212;2023-05-07T09:48:31;5;5;
76661;PMS5003;65579;45.534;6.212;2023-05-07T09:50:57;11;9;
76661;PMS5003;65579;45.534;6.212;2023-05-07T09:53:23;8;8;
76661;PMS5003;65579;45.534;6.212;2023-05-07T09:55:48;8;8;
76661;PMS5003;65579;45.534;6.212;2023-05-07T09:58:14;8;7;
76661;PMS5003;65579;45.534;6.212;2023-05-07T10:00:40;7;7;
76661;PMS5003;65579;45.534;6.212;2023-05-07T10:03:06;9;8;
76661;PMS5003;65579;45.534;6.212;2023-05-07T10:05:32;7;7;
76661;PMS5003;65579;45.534;6.212;2023-05-07T10:07:57;7;7;
76661;PMS5003;65579;45.534;6.212;2023-05-07T10:10:23;10;8;
76661;PMS5003;65579;45.534;6.212;2023-05-07T10:12:48;8;7;
76661;PMS5003;65579;45.534;6.212;2023-05-07T10:15:14;6;6;
76661;PMS5003;65579;45.534;6.212;2023-05-07T10:17:40;8;8;
76661;PMS5003;65579;45.534;6.212;2023-05-07T10:20:06;7;7;
76661;PMS5003;65579;45.534;6.212;2023-05-07T10:22:32;9;9;
76661;PMS5003;65579;45.534;6.212;2023-05-07T10:24:57;8;8;
76661;PMS5003;65579;45.534;6.212;2023-05-07T10:27:23;6;6;
76661;PMS5003;65579;45.534;6.212;2023-05-07T10:29:51;8;8;
76661;PMS5003;65579;45.534;6.212;2023-05-07T10:34:41;10;10;
76661;PMS5003;65579;45.534;6.212;2023-05-07T10:37:06;9;9;
76661;PMS5003;65579;45.534;6.212;2023-05-07T10:39:32;6;6;
76661;PMS5003;65579;45.534;6.212;2023-05-07T10:44:25;8;8;
76661;PMS5003;65579;45.534;6.212;2023-05-07T10:49:15;10;9;
76661;PMS5003;65579;45.534;6.212;2023-05-07T10:51:40;9;9;
76661;PMS5003;65579;45.534;6.212;2023-05-07T10:56:32;11;11;
76661;PMS5003;65579;45.534;6.212;2023-05-07T11:06:15;12;12;
76661;PMS5003;65579;45.534;6.212;2023-05-07T11:11:07;9;9;
76661;PMS5003;65579;45.534;6.212;2023-05-07T11:13:42;9;9;
76661;PMS5003;65579;45.534;6.212;2023-05-07T11:15:58;5;5;
76661;PMS5003;65579;45.534;6.212;2023-05-07T11:18:23;9;7;
76661;PMS5003;65579;45.534;6.212;2023-05-07T11:20:51;9;9;
76661;PMS5003;65579;45.534;6.212;2023-05-07T11:25:41;8;8;
76661;PMS5003;65579;45.534;6.212;2023-05-07T11:28:07;8;8;
76661;PMS5003;65579;45.534;6.212;2023-05-07T11:30:32;11;11;
76661;PMS5003;65579;45.534;6.212;2023-05-07T11:32:58;10;9;
76661;PMS5003;65579;45.534;6.212;2023-05-07T11:35:24;10;10;
76661;PMS5003;65579;45.534;6.212;2023-05-07T11:37:49;9;9;
76661;PMS5003;65579;45.534;6.212;2023-05-07T11:40:16;11;10;
76661;PMS5003;65579;45.534;6.212;2023-05-07T11:42:41;7;7;
76661;PMS5003;65579;45.534;6.212;2023-05-07T11:45:07;7;7;
76661;PMS5003;65579;45.534;6.212;2023-05-07T11:47:33;11;11;
76661;PMS5003;65579;45.534;6.212;2023-05-07T11:50:02;13;11;
76661;PMS5003;65579;45.534;6.212;2023-05-07T11:52:24;10;10;
76661;PMS5003;65579;45.534;6.212;2023-05-07T11:54:51;12;11;
76661;PMS5003;65579;45.534;6.212;2023-05-07T11:57:15;14;14;
76661;PMS5003;65579;45.534;6.212;2023-05-07T11:59:41;9;9;
76661;PMS5003;65579;45.534;6.212;2023-05-07T12:02:07;13;11;
76661;PMS5003;65579;45.534;6.212;2023-05-07T12:04:33;12;12;
76661;PMS5003;65579;45.534;6.212;2023-05-07T12:06:58;14;14;
76661;PMS5003;65579;45.534;6.212;2023-05-07T12:09:24;9;9;
76661;PMS5003;65579;45.534;6.212;2023-05-07T12:11:51;12;12;
76661;PMS5003;65579;45.534;6.212;2023-05-07T12:14:16;10;10;
76661;PMS5003;65579;45.534;6.212;2023-05-07T12:16:42;12;11;
76661;PMS5003;65579;45.534;6.212;2023-05-07T12:19:08;14;12;
76661;PMS5003;65579;45.534;6.212;2023-05-07T12:21:33;11;11;
76661;PMS5003;65579;45.534;6.212;2023-05-07T12:23:59;10;10;
76661;PMS5003;65579;45.534;6.212;2023-05-07T12:26:24;11;9;
76661;PMS5003;65579;45.534;6.212;2023-05-07T12:28:49;11;10;
76661;PMS5003;65579;45.534;6.212;2023-05-07T12:31:15;10;10;
76661;PMS5003;65579;45.534;6.212;2023-05-07T12:33:41;10;10;
76661;PMS5003;65579;45.534;6.212;2023-05-07T12:36:07;14;14;
76661;PMS5003;65579;45.534;6.212;2023-05-07T12:38:36;11;11;
76661;PMS5003;65579;45.534;6.212;2023-05-07T12:40:58;10;10;
76661;PMS5003;65579;45.534;6.212;2023-05-07T12:43:24;11;11;
76661;PMS5003;65579;45.534;6.212;2023-05-07T12:45:50;13;13;
76661;PMS5003;65579;45.534;6.212;2023-05-07T12:48:16;10;10;
76661;PMS5003;65579;45.534;6.212;2023-05-07T12:50:41;10;10;
76661;PMS5003;65579;45.534;6.212;2023-05-07T12:53:07;11;10;
76661;PMS5003;65579;45.534;6.212;2023-05-07T12:55:34;10;10;
76661;PMS5003;65579;45.534;6.212;2023-05-07T12:58:00;9;9;
76661;PMS5003;65579;45.534;6.212;2023-05-07T13:00:33;10;10;
76661;PMS5003;65579;45.534;6.212;2023-05-07T13:02:50;9;8;
76661;PMS5003;65579;45.534;6.212;2023-05-07T13:05:16;6;6;
76661;PMS5003;65579;45.534;6.212;2023-05-07T13:10:08;8;8;
76661;PMS5003;65579;45.534;6.212;2023-05-07T13:12:33;8;8;
76661;PMS5003;65579;45.534;6.212;2023-05-07T13:14:59;9;9;
76661;PMS5003;65579;45.534;6.212;2023-05-07T13:17:25;10;10;
76661;PMS5003;65579;45.534;6.212;2023-05-07T13:19:51;14;14;
76661;PMS5003;65579;45.534;6.212;2023-05-07T13:22:16;8;8;
76661;PMS5003;65579;45.534;6.212;2023-05-07T13:24:42;10;10;
76661;PMS5003;65579;45.534;6.212;2023-05-07T13:27:08;10;9;
76661;PMS5003;65579;45.534;6.212;2023-05-07T13:29:34;10;10;
76661;PMS5003;65579;45.534;6.212;2023-05-07T13:32:00;13;10;
76661;PMS5003;65579;45.534;6.212;2023-05-07T13:34:25;10;10;
76661;PMS5003;65579;45.534;6.212;2023-05-07T13:36:52;10;9;
76661;PMS5003;65579;45.534;6.212;2023-05-07T13:39:17;9;9;
76661;PMS5003;65579;45.534;6.212;2023-05-07T13:41:43;11;9;
76661;PMS5003;65579;45.534;6.212;2023-05-07T13:44:09;9;9;
76661;PMS5003;65579;45.534;6.212;2023-05-07T13:46:35;8;8;
76661;PMS5003;65579;45.534;6.212;2023-05-07T13:49:00;14;12;
76661;PMS5003;65579;45.534;6.212;2023-05-07T13:51:25;8;8;
76661;PMS5003;65579;45.534;6.212;2023-05-07T13:53:50;11;11;
76661;PMS5003;65579;45.534;6.212;2023-05-07T13:56:15;10;8;
76661;PMS5003;65579;45.534;6.212;2023-05-07T13:58:40;6;6;
76661;PMS5003;65579;45.534;6.212;2023-05-07T14:01:06;8;7;
76661;PMS5003;65579;45.534;6.212;2023-05-07T14:03:32;8;8;
76661;PMS5003;65579;45.534;6.212;2023-05-07T14:05:58;10;10;
76661;PMS5003;65579;45.534;6.212;2023-05-07T14:08:24;8;8;
76661;PMS5003;65579;45.534;6.212;2023-05-07T14:10:49;8;6;
76661;PMS5003;65579;45.534;6.212;2023-05-07T14:13:15;7;7;
76661;PMS5003;65579;45.534;6.212;2023-05-07T14:15:39;11;9;
76661;PMS5003;65579;45.534;6.212;2023-05-07T14:18:04;7;7;
76661;PMS5003;65579;45.534;6.212;2023-05-07T14:20:30;9;8;
76661;PMS5003;65579;45.534;6.212;2023-05-07T14:22:55;8;8;
76661;PMS5003;65579;45.534;6.212;2023-05-07T14:25:20;7;7;
76661;PMS5003;65579;45.534;6.212;2023-05-07T14:27:45;7;7;
76661;PMS5003;65579;45.534;6.212;2023-05-07T14:30:11;7;7;
76661;PMS5003;65579;45.534;6.212;2023-05-07T14:32:35;8;7;
76661;PMS5003;65579;45.534;6.212;2023-05-07T14:35:00;6;6;
76661;PMS5003;65579;45.534;6.212;2023-05-07T14:37:25;8;8;
76661;PMS5003;65579;45.534;6.212;2023-05-07T14:39:50;5;5;
76661;PMS5003;65579;45.534;6.212;2023-05-07T14:42:15;6;6;
76661;PMS5003;65579;45.534;6.212;2023-05-07T14:44:40;9;8;
76661;PMS5003;65579;45.534;6.212;2023-05-07T14:47:05;6;6;
76661;PMS5003;65579;45.534;6.212;2023-05-07T14:49:30;6;6;
76661;PMS5003;65579;45.534;6.212;2023-05-07T14:51:57;6;6;
76661;PMS5003;65579;45.534;6.212;2023-05-07T14:54:21;7;7;
76661;PMS5003;65579;45.534;6.212;2023-05-07T14:56:46;6;6;
76661;PMS5003;65579;45.534;6.212;2023-05-07T14:59:11;5;5;
76661;PMS5003;65579;45.534;6.212;2023-05-07T15:01:36;6;6;
76661;PMS5003;65579;45.534;6.212;2023-05-07T15:04:01;7;7;
76661;PMS5003;65579;45.534;6.212;2023-05-07T15:06:26;6;6;
76661;PMS5003;65579;45.534;6.212;2023-05-07T15:08:51;6;6;
76661;PMS5003;65579;45.534;6.212;2023-05-07T15:11:17;6;6;
76661;PMS5003;65579;45.534;6.212;2023-05-07T15:13:41;7;7;
76661;PMS5003;65579;45.534;6.212;2023-05-07T15:16:06;3;3;
76661;PMS5003;65579;45.534;6.212;2023-05-07T15:18:31;4;4;
76661;PMS5003;65579;45.534;6.212;2023-05-07T15:20:56;4;4;
76661;PMS5003;65579;45.534;6.212;2023-05-07T15:23:21;4;4;
76661;PMS5003;65579;45.534;6.212;2023-05-07T15:25:46;7;5;
76661;PMS5003;65579;45.534;6.212;2023-05-07T15:28:11;3;3;
76661;PMS5003;65579;45.534;6.212;2023-05-07T15:30:36;7;5;
76661;PMS5003;65579;45.534;6.212;2023-05-07T15:33:01;3;3;
76661;PMS5003;65579;45.534;6.212;2023-05-07T15:35:27;7;7;
76661;PMS5003;65579;45.534;6.212;2023-05-07T15:37:51;4;4;
76661;PMS5003;65579;45.534;6.212;2023-05-07T15:40:17;5;5;
76661;PMS5003;65579;45.534;6.212;2023-05-07T15:42:43;3;3;
76661;PMS5003;65579;45.534;6.212;2023-05-07T15:45:07;4;4;
76661;PMS5003;65579;45.534;6.212;2023-05-07T15:47:32;3;3;
76661;PMS5003;65579;45.534;6.212;2023-05-07T15:49:57;4;4;
76661;PMS5003;65579;45.534;6.212;2023-05-07T15:52:22;4;4;
76661;PMS5003;65579;45.534;6.212;2023-05-07T15:54:47;3;3;
76661;PMS5003;65579;45.534;6.212;2023-05-07T15:57:12;4;4;
76661;PMS5003;65579;45.534;6.212;2023-05-07T15:59:37;5;5;
76661;PMS5003;65579;45.534;6.212;2023-05-07T16:02:02;4;3;
76661;PMS5003;65579;45.534;6.212;2023-05-07T16:04:27;5;5;
76661;PMS5003;65579;45.534;6.212;2023-05-07T16:06:52;5;5;
76661;PMS5003;65579;45.534;6.212;2023-05-07T16:09:17;4;4;
76661;PMS5003;65579;45.534;6.212;2023-05-07T16:11:42;4;4;
76661;PMS5003;65579;45.534;6.212;2023-05-07T16:14:07;4;4;
76661;PMS5003;65579;45.534;6.212;2023-05-07T16:16:32;5;5;
76661;PMS5003;65579;45.534;6.212;2023-05-07T16:18:58;4;4;
76661;PMS5003;65579;45.534;6.212;2023-05-07T16:21:23;6;5;
76661;PMS5003;65579;45.534;6.212;2023-05-07T16:23:47;5;5;
76661;PMS5003;65579;45.534;6.212;2023-05-07T16:26:13;4;4;
76661;PMS5003;65579;45.534;6.212;2023-05-07T16:28:38;7;7;
76661;PMS5003;65579;45.534;6.212;2023-05-07T16:31:03;4;4;
76661;PMS5003;65579;45.534;6.212;2023-05-07T16:33:29;6;6;
76661;PMS5003;65579;45.534;6.212;2023-05-07T16:35:53;6;6;
76661;PMS5003;65579;45.534;6.212;2023-05-07T16:38:19;6;4;
76661;PMS5003;65579;45.534;6.212;2023-05-07T16:40:43;6;6;
76661;PMS5003;65579;45.534;6.212;2023-05-07T16:43:08;6;6;
76661;PMS5003;65579;45.534;6.212;2023-05-07T16:45:34;4;4;
76661;PMS5003;65579;45.534;6.212;2023-05-07T16:47:59;5;5;
76661;PMS5003;65579;45.534;6.212;2023-05-07T16:50:24;5;5;
76661;PMS5003;65579;45.534;6.212;2023-05-07T16:52:49;5;5;
76661;PMS5003;65579;45.534;6.212;2023-05-07T16:55:14;4;4;
76661;PMS5003;65579;45.534;6.212;2023-05-07T16:57:39;5;5;
76661;PMS5003;65579;45.534;6.212;2023-05-07T17:00:04;4;4;
76661;PMS5003;65579;45.534;6.212;2023-05-07T17:02:29;4;4;
76661;PMS5003;65579;45.534;6.212;2023-05-07T17:04:54;5;5;
76661;PMS5003;65579;45.534;6.212;2023-05-07T17:07:19;6;6;
76661;PMS5003;65579;45.534;6.212;2023-05-07T17:09:44;5;5;
76661;PMS5003;65579;45.534;6.212;2023-05-07T17:12:09;5;4;
76661;PMS5003;65579;45.534;6.212;2023-05-07T17:14:38;5;5;
76661;PMS5003;65579;45.534;6.212;2023-05-07T17:17:01;6;6;
76661;PMS5003;65579;45.534;6.212;2023-05-07T17:19:24;3;3;